sensor_id;sensor_type;location;lat;lon;timestamp;P1;durP1;ratioP1;P2;durP2;ratioP2
25127;SDS011;13107;51.304;6.866;2024-03-08T00:03:16;22.05;;;14.73;;
25127;SDS011;13107;51.304;6.866;2024-03-08T00:07:18;21.42;;;14.15;;
25127;SDS011;13107;51.304;6.866;2024-03-08T00:11:20;23.77;;;15.48;;
25127;SDS011;13107;51.304;6.866;2024-03-08T00:15:22;25.27;;;15.90;;
25127;SDS011;13107;51.304;6.866;2024-03-08T00:19:24;23.92;;;15.60;;
25127;SDS011;13107;51.304;6.866;2024-03-08T00:23:26;24.00;;;15.73;;
25127;SDS011;13107;51.304;6.866;2024-03-08T00:27:29;26.40;;;15.07;;
25127;SDS011;13107;51.304;6.866;2024-03-08T00:31:34;22.58;;;14.73;;
25127;SDS011;13107;51.304;6.866;2024-03-08T00:35:36;24.65;;;15.40;;
25127;SDS011;13107;51.304;6.866;2024-03-08T00:39:38;22.00;;;14.60;;
25127;SDS011;13107;51.304;6.866;2024-03-08T00:43:40;24.33;;;15.35;;
25127;SDS011;13107;51.304;6.866;2024-03-08T00:47:42;22.17;;;14.20;;
25127;SDS011;13107;51.304;6.866;2024-03-08T00:51:45;24.12;;;16.17;;
25127;SDS011;13107;51.304;6.866;2024-03-08T00:55:47;23.12;;;15.45;;
25127;SDS011;13107;51.304;6.866;2024-03-08T00:59:49;22.67;;;15.05;;
25127;SDS011;13107;51.304;6.866;2024-03-08T01:03:51;23.30;;;15.32;;
25127;SDS011;13107;51.304;6.866;2024-03-08T01:07:53;28.60;;;16.35;;
25127;SDS011;13107;51.304;6.866;2024-03-08T01:11:55;25.55;;;15.63;;
25127;SDS011;13107;51.304;6.866;2024-03-08T01:15:57;23.00;;;15.55;;
25127;SDS011;13107;51.304;6.866;2024-03-08T01:19:59;23.33;;;15.77;;
25127;SDS011;13107;51.304;6.866;2024-03-08T01:24:01;22.30;;;15.35;;
25127;SDS011;13107;51.304;6.866;2024-03-08T01:28:04;24.15;;;14.98;;
25127;SDS011;13107;51.304;6.866;2024-03-08T01:32:06;23.45;;;15.32;;
25127;SDS011;13107;51.304;6.866;2024-03-08T01:36:08;25.10;;;15.63;;
25127;SDS011;13107;51.304;6.866;2024-03-08T01:40:10;25.48;;;15.88;;
25127;SDS011;13107;51.304;6.866;2024-03-08T01:44:12;25.52;;;15.80;;
25127;SDS011;13107;51.304;6.866;2024-03-08T01:48:18;26.87;;;14.85;;
25127;SDS011;13107;51.304;6.866;2024-03-08T01:52:25;26.73;;;15.57;;
25127;SDS011;13107;51.304;6.866;2024-03-08T01:56:28;23.67;;;14.93;;
25127;SDS011;13107;51.304;6.866;2024-03-08T02:00:30;26.65;;;15.40;;
25127;SDS011;13107;51.304;6.866;2024-03-08T02:04:35;21.70;;;14.60;;
25127;SDS011;13107;51.304;6.866;2024-03-08T02:08:37;23.62;;;15.23;;
25127;SDS011;13107;51.304;6.866;2024-03-08T02:12:39;24.60;;;14.38;;
25127;SDS011;13107;51.304;6.866;2024-03-08T02:16:41;25.67;;;15.43;;
25127;SDS011;13107;51.304;6.866;2024-03-08T02:20:43;28.15;;;15.40;;
25127;SDS011;13107;51.304;6.866;2024-03-08T02:24:45;26.20;;;16.23;;
25127;SDS011;13107;51.304;6.866;2024-03-08T02:28:47;26.70;;;17.60;;
25127;SDS011;13107;51.304;6.866;2024-03-08T02:32:50;28.52;;;18.42;;
25127;SDS011;13107;51.304;6.866;2024-03-08T02:36:52;30.45;;;18.20;;
25127;SDS011;13107;51.304;6.866;2024-03-08T02:40:54;27.37;;;18.17;;
25127;SDS011;13107;51.304;6.866;2024-03-08T02:44:56;34.08;;;18.65;;
25127;SDS011;13107;51.304;6.866;2024-03-08T02:48:59;29.98;;;18.23;;
25127;SDS011;13107;51.304;6.866;2024-03-08T02:53:02;29.73;;;17.48;;
25127;SDS011;13107;51.304;6.866;2024-03-08T02:57:04;32.78;;;17.98;;
25127;SDS011;13107;51.304;6.866;2024-03-08T03:01:09;26.77;;;16.87;;
25127;SDS011;13107;51.304;6.866;2024-03-08T03:05:11;30.25;;;17.62;;
25127;SDS011;13107;51.304;6.866;2024-03-08T03:09:13;27.20;;;17.05;;
25127;SDS011;13107;51.304;6.866;2024-03-08T03:13:18;24.52;;;15.32;;
25127;SDS011;13107;51.304;6.866;2024-03-08T03:17:20;25.52;;;15.93;;
25127;SDS011;13107;51.304;6.866;2024-03-08T03:21:22;28.85;;;16.40;;
25127;SDS011;13107;51.304;6.866;2024-03-08T03:25:24;28.92;;;17.27;;
25127;SDS011;13107;51.304;6.866;2024-03-08T03:29:34;28.15;;;16.20;;
25127;SDS011;13107;51.304;6.866;2024-03-08T03:33:36;24.75;;;14.95;;
25127;SDS011;13107;51.304;6.866;2024-03-08T03:37:38;24.45;;;15.07;;
25127;SDS011;13107;51.304;6.866;2024-03-08T03:41:41;31.33;;;17.05;;
25127;SDS011;13107;51.304;6.866;2024-03-08T03:45:43;26.23;;;16.65;;
25127;SDS011;13107;51.304;6.866;2024-03-08T03:49:45;29.20;;;17.77;;
25127;SDS011;13107;51.304;6.866;2024-03-08T03:53:47;31.40;;;17.17;;
25127;SDS011;13107;51.304;6.866;2024-03-08T03:57:49;29.15;;;17.15;;
25127;SDS011;13107;51.304;6.866;2024-03-08T04:01:51;29.60;;;18.37;;
25127;SDS011;13107;51.304;6.866;2024-03-08T04:05:54;27.02;;;16.40;;
25127;SDS011;13107;51.304;6.866;2024-03-08T04:09:56;32.33;;;18.08;;
25127;SDS011;13107;51.304;6.866;2024-03-08T04:13:57;30.02;;;17.73;;
25127;SDS011;13107;51.304;6.866;2024-03-08T04:17:59;28.58;;;16.05;;
25127;SDS011;13107;51.304;6.866;2024-03-08T04:22:02;32.17;;;16.90;;
25127;SDS011;13107;51.304;6.866;2024-03-08T04:26:04;27.25;;;16.98;;
25127;SDS011;13107;51.304;6.866;2024-03-08T04:30:07;26.10;;;15.95;;
25127;SDS011;13107;51.304;6.866;2024-03-08T04:34:10;29.92;;;15.80;;
25127;SDS011;13107;51.304;6.866;2024-03-08T04:38:12;27.30;;;16.10;;
25127;SDS011;13107;51.304;6.866;2024-03-08T04:42:14;29.95;;;15.63;;
25127;SDS011;13107;51.304;6.866;2024-03-08T04:46:19;28.05;;;16.17;;
25127;SDS011;13107;51.304;6.866;2024-03-08T04:50:21;27.83;;;16.45;;
25127;SDS011;13107;51.304;6.866;2024-03-08T04:54:23;37.47;;;20.23;;
25127;SDS011;13107;51.304;6.866;2024-03-08T04:58:25;34.92;;;17.83;;
25127;SDS011;13107;51.304;6.866;2024-03-08T05:02:27;32.28;;;17.62;;
25127;SDS011;13107;51.304;6.866;2024-03-08T05:06:29;32.08;;;18.05;;
25127;SDS011;13107;51.304;6.866;2024-03-08T05:10:31;27.55;;;16.42;;
25127;SDS011;13107;51.304;6.866;2024-03-08T05:14:33;29.67;;;17.55;;
25127;SDS011;13107;51.304;6.866;2024-03-08T05:18:36;27.20;;;16.45;;
25127;SDS011;13107;51.304;6.866;2024-03-08T05:22:38;30.62;;;16.95;;
25127;SDS011;13107;51.304;6.866;2024-03-08T05:26:42;33.70;;;17.37;;
25127;SDS011;13107;51.304;6.866;2024-03-08T05:30:43;28.92;;;16.77;;
25127;SDS011;13107;51.304;6.866;2024-03-08T05:34:45;28.45;;;16.50;;
25127;SDS011;13107;51.304;6.866;2024-03-08T05:38:48;33.67;;;17.52;;
25127;SDS011;13107;51.304;6.866;2024-03-08T05:42:51;31.83;;;17.40;;
25127;SDS011;13107;51.304;6.866;2024-03-08T05:46:53;33.47;;;17.90;;
25127;SDS011;13107;51.304;6.866;2024-03-08T05:50:55;31.52;;;17.95;;
25127;SDS011;13107;51.304;6.866;2024-03-08T05:54:58;34.97;;;17.70;;
25127;SDS011;13107;51.304;6.866;2024-03-08T05:59:00;30.77;;;17.08;;
25127;SDS011;13107;51.304;6.866;2024-03-08T06:03:02;26.98;;;16.37;;
25127;SDS011;13107;51.304;6.866;2024-03-08T06:07:04;27.52;;;16.15;;
25127;SDS011;13107;51.304;6.866;2024-03-08T06:11:06;27.27;;;16.30;;
25127;SDS011;13107;51.304;6.866;2024-03-08T06:15:08;28.00;;;16.40;;
25127;SDS011;13107;51.304;6.866;2024-03-08T06:19:11;29.27;;;16.12;;
25127;SDS011;13107;51.304;6.866;2024-03-08T06:23:13;30.40;;;16.50;;
25127;SDS011;13107;51.304;6.866;2024-03-08T06:27:18;31.20;;;18.08;;
25127;SDS011;13107;51.304;6.866;2024-03-08T06:31:21;36.08;;;19.50;;
25127;SDS011;13107;51.304;6.866;2024-03-08T06:35:22;33.30;;;17.92;;
25127;SDS011;13107;51.304;6.866;2024-03-08T06:39:24;34.28;;;18.67;;
25127;SDS011;13107;51.304;6.866;2024-03-08T06:43:26;32.40;;;18.30;;
25127;SDS011;13107;51.304;6.866;2024-03-08T06:47:34;31.85;;;17.55;;
25127;SDS011;13107;51.304;6.866;2024-03-08T06:51:36;31.87;;;18.65;;
25127;SDS011;13107;51.304;6.866;2024-03-08T06:55:37;32.47;;;18.12;;
25127;SDS011;13107;51.304;6.866;2024-03-08T06:59:39;29.67;;;16.52;;
25127;SDS011;13107;51.304;6.866;2024-03-08T07:03:41;31.62;;;17.12;;
25127;SDS011;13107;51.304;6.866;2024-03-08T07:07:45;29.10;;;17.40;;
25127;SDS011;13107;51.304;6.866;2024-03-08T07:11:50;28.33;;;17.00;;
25127;SDS011;13107;51.304;6.866;2024-03-08T07:15:56;29.95;;;16.87;;
25127;SDS011;13107;51.304;6.866;2024-03-08T07:20:00;30.25;;;17.83;;
25127;SDS011;13107;51.304;6.866;2024-03-08T07:28:18;29.17;;;17.15;;
25127;SDS011;13107;51.304;6.866;2024-03-08T07:32:19;26.92;;;16.27;;
25127;SDS011;13107;51.304;6.866;2024-03-08T07:36:27;28.05;;;15.90;;
25127;SDS011;13107;51.304;6.866;2024-03-08T07:40:29;30.62;;;16.42;;
25127;SDS011;13107;51.304;6.866;2024-03-08T07:44:31;28.52;;;16.10;;
25127;SDS011;13107;51.304;6.866;2024-03-08T07:48:33;28.20;;;16.58;;
25127;SDS011;13107;51.304;6.866;2024-03-08T07:52:35;29.85;;;16.55;;
25127;SDS011;13107;51.304;6.866;2024-03-08T07:56:37;28.02;;;15.93;;
25127;SDS011;13107;51.304;6.866;2024-03-08T08:00:39;25.50;;;16.00;;
25127;SDS011;13107;51.304;6.866;2024-03-08T08:04:44;26.92;;;16.10;;
25127;SDS011;13107;51.304;6.866;2024-03-08T08:08:48;26.35;;;15.80;;
25127;SDS011;13107;51.304;6.866;2024-03-08T08:12:51;25.60;;;15.73;;
25127;SDS011;13107;51.304;6.866;2024-03-08T08:16:52;26.33;;;15.57;;
25127;SDS011;13107;51.304;6.866;2024-03-08T08:20:56;25.27;;;16.73;;
25127;SDS011;13107;51.304;6.866;2024-03-08T08:24:58;24.25;;;14.57;;
25127;SDS011;13107;51.304;6.866;2024-03-08T08:28:59;24.12;;;15.07;;
25127;SDS011;13107;51.304;6.866;2024-03-08T08:33:01;23.20;;;15.00;;
25127;SDS011;13107;51.304;6.866;2024-03-08T08:37:03;23.25;;;15.23;;
25127;SDS011;13107;51.304;6.866;2024-03-08T08:41:05;25.25;;;14.85;;
25127;SDS011;13107;51.304;6.866;2024-03-08T08:45:07;24.67;;;13.80;;
25127;SDS011;13107;51.304;6.866;2024-03-08T08:49:17;22.48;;;14.05;;
25127;SDS011;13107;51.304;6.866;2024-03-08T08:53:22;25.17;;;15.73;;
25127;SDS011;13107;51.304;6.866;2024-03-08T08:57:23;21.85;;;13.43;;
25127;SDS011;13107;51.304;6.866;2024-03-08T09:01:25;26.25;;;14.57;;
25127;SDS011;13107;51.304;6.866;2024-03-08T09:05:27;22.17;;;14.52;;
25127;SDS011;13107;51.304;6.866;2024-03-08T09:09:29;20.60;;;13.50;;
25127;SDS011;13107;51.304;6.866;2024-03-08T09:13:31;21.55;;;12.70;;
25127;SDS011;13107;51.304;6.866;2024-03-08T09:17:35;19.75;;;13.35;;
25127;SDS011;13107;51.304;6.866;2024-03-08T09:21:37;21.45;;;14.05;;
25127;SDS011;13107;51.304;6.866;2024-03-08T09:25:41;24.15;;;13.73;;
25127;SDS011;13107;51.304;6.866;2024-03-08T09:29:45;17.65;;;12.73;;
25127;SDS011;13107;51.304;6.866;2024-03-08T09:33:47;18.83;;;13.38;;
25127;SDS011;13107;51.304;6.866;2024-03-08T09:37:49;20.17;;;13.20;;
25127;SDS011;13107;51.304;6.866;2024-03-08T09:41:52;18.60;;;12.73;;
25127;SDS011;13107;51.304;6.866;2024-03-08T09:45:56;17.12;;;12.50;;
25127;SDS011;13107;51.304;6.866;2024-03-08T09:49:59;19.73;;;12.77;;
25127;SDS011;13107;51.304;6.866;2024-03-08T09:54:02;16.67;;;12.23;;
25127;SDS011;13107;51.304;6.866;2024-03-08T09:58:17;18.30;;;12.77;;
25127;SDS011;13107;51.304;6.866;2024-03-08T10:02:46;17.48;;;12.43;;
25127;SDS011;13107;51.304;6.866;2024-03-08T10:06:49;16.60;;;11.57;;
25127;SDS011;13107;51.304;6.866;2024-03-08T10:10:51;14.90;;;10.98;;
25127;SDS011;13107;51.304;6.866;2024-03-08T10:14:54;14.43;;;10.65;;
25127;SDS011;13107;51.304;6.866;2024-03-08T10:18:57;13.57;;;10.60;;
25127;SDS011;13107;51.304;6.866;2024-03-08T10:22:59;13.90;;;11.07;;
25127;SDS011;13107;51.304;6.866;2024-03-08T10:27:11;15.63;;;11.63;;
25127;SDS011;13107;51.304;6.866;2024-03-08T10:31:13;14.02;;;10.05;;
25127;SDS011;13107;51.304;6.866;2024-03-08T10:35:20;13.70;;;10.15;;
25127;SDS011;13107;51.304;6.866;2024-03-08T10:39:22;15.35;;;10.52;;
25127;SDS011;13107;51.304;6.866;2024-03-08T10:43:26;16.73;;;10.60;;
25127;SDS011;13107;51.304;6.866;2024-03-08T10:47:32;14.52;;;10.43;;
25127;SDS011;13107;51.304;6.866;2024-03-08T10:51:42;15.80;;;9.68;;
25127;SDS011;13107;51.304;6.866;2024-03-08T10:55:44;13.27;;;9.40;;
25127;SDS011;13107;51.304;6.866;2024-03-08T10:59:48;12.02;;;8.50;;
25127;SDS011;13107;51.304;6.866;2024-03-08T11:03:51;12.55;;;7.90;;
25127;SDS011;13107;51.304;6.866;2024-03-08T11:07:55;13.62;;;8.13;;
25127;SDS011;13107;51.304;6.866;2024-03-08T11:20:32;13.05;;;8.80;;
25127;SDS011;13107;51.304;6.866;2024-03-08T11:24:37;13.55;;;9.60;;
25127;SDS011;13107;51.304;6.866;2024-03-08T11:28:41;11.52;;;8.13;;
25127;SDS011;13107;51.304;6.866;2024-03-08T11:32:45;15.23;;;9.43;;
25127;SDS011;13107;51.304;6.866;2024-03-08T11:36:48;13.75;;;8.35;;
25127;SDS011;13107;51.304;6.866;2024-03-08T11:40:50;14.93;;;8.80;;
25127;SDS011;13107;51.304;6.866;2024-03-08T11:44:52;15.52;;;9.32;;
25127;SDS011;13107;51.304;6.866;2024-03-08T11:48:54;11.12;;;8.40;;
25127;SDS011;13107;51.304;6.866;2024-03-08T11:53:00;13.13;;;9.13;;
25127;SDS011;13107;51.304;6.866;2024-03-08T12:01:06;11.40;;;7.97;;
25127;SDS011;13107;51.304;6.866;2024-03-08T12:05:19;11.35;;;8.77;;
25127;SDS011;13107;51.304;6.866;2024-03-08T12:09:21;11.93;;;8.75;;
25127;SDS011;13107;51.304;6.866;2024-03-08T12:13:23;11.82;;;8.52;;
25127;SDS011;13107;51.304;6.866;2024-03-08T12:17:25;12.35;;;8.77;;
25127;SDS011;13107;51.304;6.866;2024-03-08T12:21:30;11.70;;;8.65;;
25127;SDS011;13107;51.304;6.866;2024-03-08T12:25:34;11.32;;;8.20;;
25127;SDS011;13107;51.304;6.866;2024-03-08T12:29:38;11.10;;;8.48;;
25127;SDS011;13107;51.304;6.866;2024-03-08T12:33:47;12.75;;;8.70;;
25127;SDS011;13107;51.304;6.866;2024-03-08T12:37:58;11.60;;;7.95;;
25127;SDS011;13107;51.304;6.866;2024-03-08T12:42:01;10.15;;;7.47;;
25127;SDS011;13107;51.304;6.866;2024-03-08T12:46:03;13.40;;;8.20;;
25127;SDS011;13107;51.304;6.866;2024-03-08T12:50:07;12.18;;;8.07;;
25127;SDS011;13107;51.304;6.866;2024-03-08T12:54:10;12.82;;;8.45;;
25127;SDS011;13107;51.304;6.866;2024-03-08T12:58:13;10.85;;;7.93;;
25127;SDS011;13107;51.304;6.866;2024-03-08T13:02:14;10.95;;;7.18;;
25127;SDS011;13107;51.304;6.866;2024-03-08T13:06:18;10.65;;;7.70;;
25127;SDS011;13107;51.304;6.866;2024-03-08T13:10:23;12.05;;;7.85;;
25127;SDS011;13107;51.304;6.866;2024-03-08T13:14:24;12.18;;;7.70;;
25127;SDS011;13107;51.304;6.866;2024-03-08T13:18:27;9.50;;;7.62;;
25127;SDS011;13107;51.304;6.866;2024-03-08T13:22:30;10.45;;;7.45;;
25127;SDS011;13107;51.304;6.866;2024-03-08T13:26:31;9.85;;;7.28;;
25127;SDS011;13107;51.304;6.866;2024-03-08T13:30:36;10.10;;;7.47;;
25127;SDS011;13107;51.304;6.866;2024-03-08T13:34:41;12.30;;;7.93;;
25127;SDS011;13107;51.304;6.866;2024-03-08T13:38:44;11.82;;;7.95;;
25127;SDS011;13107;51.304;6.866;2024-03-08T13:42:47;12.07;;;7.75;;
25127;SDS011;13107;51.304;6.866;2024-03-08T13:46:52;11.30;;;7.97;;
25127;SDS011;13107;51.304;6.866;2024-03-08T13:50:55;11.73;;;6.95;;
25127;SDS011;13107;51.304;6.866;2024-03-08T13:54:58;10.13;;;6.93;;
25127;SDS011;13107;51.304;6.866;2024-03-08T13:59:00;12.95;;;7.37;;
25127;SDS011;13107;51.304;6.866;2024-03-08T14:03:03;10.00;;;7.43;;
25127;SDS011;13107;51.304;6.866;2024-03-08T14:07:09;9.35;;;6.85;;
25127;SDS011;13107;51.304;6.866;2024-03-08T14:11:12;13.07;;;7.60;;
25127;SDS011;13107;51.304;6.866;2024-03-08T14:15:14;9.13;;;7.03;;
25127;SDS011;13107;51.304;6.866;2024-03-08T14:19:18;10.02;;;7.10;;
25127;SDS011;13107;51.304;6.866;2024-03-08T14:23:20;10.30;;;7.65;;
25127;SDS011;13107;51.304;6.866;2024-03-08T14:27:23;13.43;;;7.45;;
25127;SDS011;13107;51.304;6.866;2024-03-08T14:31:25;9.32;;;7.30;;
25127;SDS011;13107;51.304;6.866;2024-03-08T14:35:27;10.70;;;8.18;;
25127;SDS011;13107;51.304;6.866;2024-03-08T14:39:30;11.15;;;8.35;;
25127;SDS011;13107;51.304;6.866;2024-03-08T14:43:34;11.70;;;8.88;;
25127;SDS011;13107;51.304;6.866;2024-03-08T14:47:36;11.73;;;8.82;;
25127;SDS011;13107;51.304;6.866;2024-03-08T14:51:39;14.90;;;8.73;;
25127;SDS011;13107;51.304;6.866;2024-03-08T14:55:42;14.90;;;8.70;;
25127;SDS011;13107;51.304;6.866;2024-03-08T14:59:44;15.43;;;9.80;;
25127;SDS011;13107;51.304;6.866;2024-03-08T15:03:46;13.15;;;8.57;;
25127;SDS011;13107;51.304;6.866;2024-03-08T15:07:47;16.62;;;9.25;;
25127;SDS011;13107;51.304;6.866;2024-03-08T15:11:50;16.73;;;9.73;;
25127;SDS011;13107;51.304;6.866;2024-03-08T15:15:52;13.88;;;10.38;;
25127;SDS011;13107;51.304;6.866;2024-03-08T15:19:57;13.30;;;9.48;;
25127;SDS011;13107;51.304;6.866;2024-03-08T15:23:59;13.15;;;9.60;;
25127;SDS011;13107;51.304;6.866;2024-03-08T15:28:01;12.32;;;8.95;;
25127;SDS011;13107;51.304;6.866;2024-03-08T15:32:05;13.20;;;9.45;;
25127;SDS011;13107;51.304;6.866;2024-03-08T15:36:08;16.98;;;10.60;;
25127;SDS011;13107;51.304;6.866;2024-03-08T15:40:12;13.98;;;9.50;;
25127;SDS011;13107;51.304;6.866;2024-03-08T15:44:22;14.05;;;10.15;;
25127;SDS011;13107;51.304;6.866;2024-03-08T15:48:23;16.60;;;10.80;;
25127;SDS011;13107;51.304;6.866;2024-03-08T15:52:26;14.55;;;10.80;;
25127;SDS011;13107;51.304;6.866;2024-03-08T15:56:28;17.55;;;11.68;;
25127;SDS011;13107;51.304;6.866;2024-03-08T16:00:30;14.98;;;10.23;;
25127;SDS011;13107;51.304;6.866;2024-03-08T16:04:35;14.15;;;10.07;;
25127;SDS011;13107;51.304;6.866;2024-03-08T16:08:37;14.48;;;9.70;;
25127;SDS011;13107;51.304;6.866;2024-03-08T16:12:40;15.73;;;10.18;;
25127;SDS011;13107;51.304;6.866;2024-03-08T16:16:42;17.40;;;9.30;;
25127;SDS011;13107;51.304;6.866;2024-03-08T16:20:45;12.45;;;8.77;;
25127;SDS011;13107;51.304;6.866;2024-03-08T16:24:48;15.60;;;10.05;;
25127;SDS011;13107;51.304;6.866;2024-03-08T16:28:52;15.82;;;10.32;;
25127;SDS011;13107;51.304;6.866;2024-03-08T16:32:55;17.10;;;10.05;;
25127;SDS011;13107;51.304;6.866;2024-03-08T16:36:57;14.63;;;9.32;;
25127;SDS011;13107;51.304;6.866;2024-03-08T16:40:59;14.27;;;9.68;;
25127;SDS011;13107;51.304;6.866;2024-03-08T16:45:02;15.52;;;9.45;;
25127;SDS011;13107;51.304;6.866;2024-03-08T16:49:05;16.05;;;9.50;;
25127;SDS011;13107;51.304;6.866;2024-03-08T16:53:07;13.98;;;9.57;;
25127;SDS011;13107;51.304;6.866;2024-03-08T16:57:09;18.50;;;10.00;;
25127;SDS011;13107;51.304;6.866;2024-03-08T17:01:15;15.10;;;9.55;;
25127;SDS011;13107;51.304;6.866;2024-03-08T17:05:17;17.50;;;10.32;;
25127;SDS011;13107;51.304;6.866;2024-03-08T17:09:20;19.05;;;10.52;;
25127;SDS011;13107;51.304;6.866;2024-03-08T17:13:23;16.70;;;9.55;;
25127;SDS011;13107;51.304;6.866;2024-03-08T17:17:25;16.25;;;9.77;;
25127;SDS011;13107;51.304;6.866;2024-03-08T17:21:27;15.93;;;9.57;;
25127;SDS011;13107;51.304;6.866;2024-03-08T17:25:30;13.70;;;9.30;;
25127;SDS011;13107;51.304;6.866;2024-03-08T17:29:33;16.77;;;10.65;;
25127;SDS011;13107;51.304;6.866;2024-03-08T17:33:35;14.98;;;9.70;;
25127;SDS011;13107;51.304;6.866;2024-03-08T17:37:38;14.35;;;9.00;;
25127;SDS011;13107;51.304;6.866;2024-03-08T17:41:40;16.35;;;9.95;;
25127;SDS011;13107;51.304;6.866;2024-03-08T17:45:44;15.30;;;9.27;;
25127;SDS011;13107;51.304;6.866;2024-03-08T17:49:48;15.73;;;9.38;;
25127;SDS011;13107;51.304;6.866;2024-03-08T17:53:51;14.55;;;8.93;;
25127;SDS011;13107;51.304;6.866;2024-03-08T17:57:53;14.65;;;9.88;;
25127;SDS011;13107;51.304;6.866;2024-03-08T18:01:55;16.33;;;9.43;;
25127;SDS011;13107;51.304;6.866;2024-03-08T18:05:57;14.90;;;9.55;;
25127;SDS011;13107;51.304;6.866;2024-03-08T18:09:59;17.02;;;9.57;;
25127;SDS011;13107;51.304;6.866;2024-03-08T18:14:01;14.50;;;9.02;;
25127;SDS011;13107;51.304;6.866;2024-03-08T18:18:05;16.02;;;9.85;;
25127;SDS011;13107;51.304;6.866;2024-03-08T18:22:12;15.02;;;9.45;;
25127;SDS011;13107;51.304;6.866;2024-03-08T18:26:14;18.00;;;9.52;;
25127;SDS011;13107;51.304;6.866;2024-03-08T18:30:15;14.93;;;9.15;;
25127;SDS011;13107;51.304;6.866;2024-03-08T18:34:18;18.48;;;10.15;;
25127;SDS011;13107;51.304;6.866;2024-03-08T18:38:21;18.87;;;10.52;;
25127;SDS011;13107;51.304;6.866;2024-03-08T18:42:24;17.90;;;11.25;;
25127;SDS011;13107;51.304;6.866;2024-03-08T18:46:25;18.15;;;11.25;;
25127;SDS011;13107;51.304;6.866;2024-03-08T18:50:28;17.52;;;10.48;;
25127;SDS011;13107;51.304;6.866;2024-03-08T18:54:30;18.20;;;10.85;;
25127;SDS011;13107;51.304;6.866;2024-03-08T18:58:33;17.87;;;11.32;;
25127;SDS011;13107;51.304;6.866;2024-03-08T19:02:49;20.08;;;11.57;;
25127;SDS011;13107;51.304;6.866;2024-03-08T19:06:53;19.48;;;11.50;;
25127;SDS011;13107;51.304;6.866;2024-03-08T19:10:55;18.67;;;11.20;;
25127;SDS011;13107;51.304;6.866;2024-03-08T19:14:59;21.52;;;12.13;;
25127;SDS011;13107;51.304;6.866;2024-03-08T19:19:00;20.02;;;11.35;;
25127;SDS011;13107;51.304;6.866;2024-03-08T19:23:03;19.10;;;11.27;;
25127;SDS011;13107;51.304;6.866;2024-03-08T19:27:07;18.67;;;11.82;;
25127;SDS011;13107;51.304;6.866;2024-03-08T19:31:13;19.93;;;11.43;;
25127;SDS011;13107;51.304;6.866;2024-03-08T19:35:16;18.67;;;11.10;;
25127;SDS011;13107;51.304;6.866;2024-03-08T19:39:23;20.62;;;12.52;;
25127;SDS011;13107;51.304;6.866;2024-03-08T19:43:26;21.12;;;12.57;;
25127;SDS011;13107;51.304;6.866;2024-03-08T19:47:28;19.02;;;11.82;;
25127;SDS011;13107;51.304;6.866;2024-03-08T19:51:30;20.25;;;11.60;;
25127;SDS011;13107;51.304;6.866;2024-03-08T19:55:33;20.05;;;11.45;;
25127;SDS011;13107;51.304;6.866;2024-03-08T19:59:36;20.00;;;11.43;;
25127;SDS011;13107;51.304;6.866;2024-03-08T20:03:42;21.97;;;11.80;;
25127;SDS011;13107;51.304;6.866;2024-03-08T20:07:45;21.17;;;11.60;;
25127;SDS011;13107;51.304;6.866;2024-03-08T20:11:47;21.42;;;11.68;;
25127;SDS011;13107;51.304;6.866;2024-03-08T20:15:51;18.05;;;10.98;;
25127;SDS011;13107;51.304;6.866;2024-03-08T20:19:57;18.20;;;11.55;;
25127;SDS011;13107;51.304;6.866;2024-03-08T20:23:59;22.70;;;12.02;;
25127;SDS011;13107;51.304;6.866;2024-03-08T20:28:01;20.10;;;11.88;;
25127;SDS011;13107;51.304;6.866;2024-03-08T20:32:06;20.37;;;11.70;;
25127;SDS011;13107;51.304;6.866;2024-03-08T20:36:08;19.55;;;12.45;;
25127;SDS011;13107;51.304;6.866;2024-03-08T20:40:12;21.45;;;12.02;;
25127;SDS011;13107;51.304;6.866;2024-03-08T20:44:14;23.45;;;12.90;;
25127;SDS011;13107;51.304;6.866;2024-03-08T20:48:16;21.30;;;13.60;;
25127;SDS011;13107;51.304;6.866;2024-03-08T20:52:22;22.42;;;13.25;;
25127;SDS011;13107;51.304;6.866;2024-03-08T20:56:25;25.95;;;13.25;;
25127;SDS011;13107;51.304;6.866;2024-03-08T21:00:27;25.88;;;13.73;;
25127;SDS011;13107;51.304;6.866;2024-03-08T21:04:42;24.15;;;13.73;;
25127;SDS011;13107;51.304;6.866;2024-03-08T21:08:45;23.58;;;13.45;;
25127;SDS011;13107;51.304;6.866;2024-03-08T21:12:47;21.65;;;13.25;;
25127;SDS011;13107;51.304;6.866;2024-03-08T21:16:55;29.95;;;15.52;;
25127;SDS011;13107;51.304;6.866;2024-03-08T21:20:58;25.30;;;14.60;;
25127;SDS011;13107;51.304;6.866;2024-03-08T21:25:03;22.73;;;13.93;;
25127;SDS011;13107;51.304;6.866;2024-03-08T21:29:05;25.67;;;14.85;;
25127;SDS011;13107;51.304;6.866;2024-03-08T21:33:07;24.63;;;13.38;;
25127;SDS011;13107;51.304;6.866;2024-03-08T21:37:12;26.30;;;15.23;;
25127;SDS011;13107;51.304;6.866;2024-03-08T21:41:14;26.15;;;15.23;;
25127;SDS011;13107;51.304;6.866;2024-03-08T21:45:16;24.15;;;14.55;;
25127;SDS011;13107;51.304;6.866;2024-03-08T21:49:17;25.42;;;15.90;;
25127;SDS011;13107;51.304;6.866;2024-03-08T21:53:19;24.63;;;14.63;;
25127;SDS011;13107;51.304;6.866;2024-03-08T21:57:33;27.50;;;15.45;;
25127;SDS011;13107;51.304;6.866;2024-03-08T22:01:35;24.12;;;14.50;;
25127;SDS011;13107;51.304;6.866;2024-03-08T22:05:37;26.95;;;14.75;;
25127;SDS011;13107;51.304;6.866;2024-03-08T22:09:39;22.42;;;14.07;;
25127;SDS011;13107;51.304;6.866;2024-03-08T22:13:41;26.05;;;14.87;;
25127;SDS011;13107;51.304;6.866;2024-03-08T22:17:43;25.75;;;13.85;;
25127;SDS011;13107;51.304;6.866;2024-03-08T22:21:46;29.23;;;14.98;;
25127;SDS011;13107;51.304;6.866;2024-03-08T22:25:48;21.08;;;13.62;;
25127;SDS011;13107;51.304;6.866;2024-03-08T22:29:51;22.92;;;13.30;;
25127;SDS011;13107;51.304;6.866;2024-03-08T22:33:55;24.02;;;13.02;;
25127;SDS011;13107;51.304;6.866;2024-03-08T22:37:58;22.45;;;12.85;;
25127;SDS011;13107;51.304;6.866;2024-03-08T22:41:59;20.55;;;12.30;;
25127;SDS011;13107;51.304;6.866;2024-03-08T22:46:02;21.90;;;12.88;;
25127;SDS011;13107;51.304;6.866;2024-03-08T22:50:08;23.83;;;13.17;;
25127;SDS011;13107;51.304;6.866;2024-03-08T22:54:13;24.10;;;12.32;;
25127;SDS011;13107;51.304;6.866;2024-03-08T22:58:16;21.25;;;12.55;;
25127;SDS011;13107;51.304;6.866;2024-03-08T23:02:18;23.35;;;12.98;;
25127;SDS011;13107;51.304;6.866;2024-03-08T23:06:20;24.00;;;12.75;;
25127;SDS011;13107;51.304;6.866;2024-03-08T23:10:23;23.80;;;13.40;;
25127;SDS011;13107;51.304;6.866;2024-03-08T23:14:30;25.88;;;13.05;;
25127;SDS011;13107;51.304;6.866;2024-03-08T23:18:33;23.38;;;13.68;;
25127;SDS011;13107;51.304;6.866;2024-03-08T23:22:35;24.00;;;13.50;;
25127;SDS011;13107;51.304;6.866;2024-03-08T23:26:37;23.38;;;13.50;;
25127;SDS011;13107;51.304;6.866;2024-03-08T23:30:38;25.88;;;14.35;;
25127;SDS011;13107;51.304;6.866;2024-03-08T23:34:41;26.77;;;14.52;;
25127;SDS011;13107;51.304;6.866;2024-03-08T23:38:43;25.45;;;13.00;;
25127;SDS011;13107;51.304;6.866;2024-03-08T23:42:46;23.45;;;12.50;;
25127;SDS011;13107;51.304;6.866;2024-03-08T23:46:49;24.02;;;13.48;;
25127;SDS011;13107;51.304;6.866;2024-03-08T23:50:52;24.83;;;13.10;;
25127;SDS011;13107;51.304;6.866;2024-03-08T23:54:54;25.23;;;13.25;;
25127;SDS011;13107;51.304;6.866;2024-03-08T23:58:56;27.20;;;13.32;;
